Monument Lake Park, Colorado
Current Conditions -  °F | °C
As of 12:06 PM on Monday 20 Oct 2014 (Local Time) from KVTP Reporting Station
Clear Clear  
Wind Chill: 13°   Ceiling: Unl
Heat Index: 13°   Visibility: 10mi
Dew Point:   Wind: 7mph
Humidity: 41%   Direction: 40°NE
Pressure: 30.43"   Gusts: NA
Location:  37.1566°N, 104.956°W
Report Text: KVTP 201806Z AUTO 04006KT 10SM CLR 13/00 A3043 RMK AO2
Loading
Personal Weather Stations






























Interactive Weather Map
Tropical Storm Tracking
New forecast layout! Learn more

10-Day Weather Forecast

Advertisements
Track Severe Weather on mobile